sensor_id;sensor_type;location;lat;lon;timestamp;P1;durP1;ratioP1;P2;durP2;ratioP2
7675;SDS011;3880;51.464;-2.566;2022-07-06T00:00:01;2.60;;;2.40;;
7675;SDS011;3880;51.464;-2.566;2022-07-06T00:02:29;2.57;;;2.30;;
7675;SDS011;3880;51.464;-2.566;2022-07-06T00:04:56;2.40;;;2.20;;
7675;SDS011;3880;51.464;-2.566;2022-07-06T00:07:24;2.53;;;2.00;;
7675;SDS011;3880;51.464;-2.566;2022-07-06T00:09:51;2.50;;;2.30;;
7675;SDS011;3880;51.464;-2.566;2022-07-06T00:12:18;3.70;;;2.80;;
7675;SDS011;3880;51.464;-2.566;2022-07-06T00:14:45;2.80;;;2.47;;
7675;SDS011;3880;51.464;-2.566;2022-07-06T00:17:14;3.00;;;2.10;;
7675;SDS011;3880;51.464;-2.566;2022-07-06T00:19:41;2.57;;;2.37;;
7675;SDS011;3880;51.464;-2.566;2022-07-06T00:22:08;5.13;;;2.40;;
7675;SDS011;3880;51.464;-2.566;2022-07-06T00:24:36;3.80;;;2.50;;
7675;SDS011;3880;51.464;-2.566;2022-07-06T00:27:03;6.83;;;2.43;;
7675;SDS011;3880;51.464;-2.566;2022-07-06T00:29:30;2.10;;;2.00;;
7675;SDS011;3880;51.464;-2.566;2022-07-06T00:31:57;2.30;;;2.10;;
7675;SDS011;3880;51.464;-2.566;2022-07-06T00:34:26;2.10;;;1.90;;
7675;SDS011;3880;51.464;-2.566;2022-07-06T00:36:53;2.97;;;2.77;;
7675;SDS011;3880;51.464;-2.566;2022-07-06T00:39:21;2.60;;;2.40;;
7675;SDS011;3880;51.464;-2.566;2022-07-06T00:41:54;2.73;;;2.30;;
7675;SDS011;3880;51.464;-2.566;2022-07-06T00:44:21;2.37;;;2.17;;
7675;SDS011;3880;51.464;-2.566;2022-07-06T00:46:48;2.10;;;1.97;;
7675;SDS011;3880;51.464;-2.566;2022-07-06T00:49:15;3.43;;;2.33;;
7675;SDS011;3880;51.464;-2.566;2022-07-06T00:51:58;3.60;;;2.30;;
7675;SDS011;3880;51.464;-2.566;2022-07-06T00:54:26;2.97;;;2.13;;
7675;SDS011;3880;51.464;-2.566;2022-07-06T00:56:54;2.50;;;2.13;;
7675;SDS011;3880;51.464;-2.566;2022-07-06T00:59:22;2.73;;;2.50;;
7675;SDS011;3880;51.464;-2.566;2022-07-06T01:01:50;2.77;;;2.23;;
7675;SDS011;3880;51.464;-2.566;2022-07-06T01:04:17;3.93;;;2.70;;
7675;SDS011;3880;51.464;-2.566;2022-07-06T01:06:44;7.00;;;2.80;;
7675;SDS011;3880;51.464;-2.566;2022-07-06T01:09:14;2.63;;;2.43;;
7675;SDS011;3880;51.464;-2.566;2022-07-06T01:11:42;3.03;;;2.40;;
7675;SDS011;3880;51.464;-2.566;2022-07-06T01:14:09;2.87;;;2.57;;
7675;SDS011;3880;51.464;-2.566;2022-07-06T01:16:37;2.97;;;2.77;;
7675;SDS011;3880;51.464;-2.566;2022-07-06T01:19:04;2.20;;;2.10;;
7675;SDS011;3880;51.464;-2.566;2022-07-06T01:21:33;10.27;;;3.00;;
7675;SDS011;3880;51.464;-2.566;2022-07-06T01:24:00;2.70;;;2.00;;
7675;SDS011;3880;51.464;-2.566;2022-07-06T01:26:27;2.83;;;2.60;;
7675;SDS011;3880;51.464;-2.566;2022-07-06T01:28:55;3.57;;;2.27;;
7675;SDS011;3880;51.464;-2.566;2022-07-06T01:31:23;3.87;;;2.43;;
7675;SDS011;3880;51.464;-2.566;2022-07-06T01:33:51;2.00;;;1.90;;
7675;SDS011;3880;51.464;-2.566;2022-07-06T01:36:21;2.50;;;2.30;;
7675;SDS011;3880;51.464;-2.566;2022-07-06T01:38:52;2.93;;;2.53;;
7675;SDS011;3880;51.464;-2.566;2022-07-06T01:41:20;2.47;;;2.27;;
7675;SDS011;3880;51.464;-2.566;2022-07-06T01:43:48;2.20;;;2.00;;
7675;SDS011;3880;51.464;-2.566;2022-07-06T01:46:15;2.40;;;2.20;;
7675;SDS011;3880;51.464;-2.566;2022-07-06T01:48:43;2.27;;;2.00;;
7675;SDS011;3880;51.464;-2.566;2022-07-06T01:51:11;2.17;;;2.07;;
7675;SDS011;3880;51.464;-2.566;2022-07-06T01:53:38;2.20;;;2.10;;
7675;SDS011;3880;51.464;-2.566;2022-07-06T01:56:07;2.10;;;2.00;;
7675;SDS011;3880;51.464;-2.566;2022-07-06T01:58:35;2.47;;;2.23;;
7675;SDS011;3880;51.464;-2.566;2022-07-06T02:01:06;2.97;;;2.77;;
7675;SDS011;3880;51.464;-2.566;2022-07-06T02:03:33;2.00;;;1.90;;
7675;SDS011;3880;51.464;-2.566;2022-07-06T02:06:01;2.67;;;2.47;;
7675;SDS011;3880;51.464;-2.566;2022-07-06T02:08:28;2.20;;;2.10;;
7675;SDS011;3880;51.464;-2.566;2022-07-06T02:10:55;2.00;;;1.80;;
7675;SDS011;3880;51.464;-2.566;2022-07-06T02:13:24;2.17;;;2.07;;
7675;SDS011;3880;51.464;-2.566;2022-07-06T02:15:54;2.70;;;2.23;;
7675;SDS011;3880;51.464;-2.566;2022-07-06T02:18:24;4.63;;;2.67;;
7675;SDS011;3880;51.464;-2.566;2022-07-06T02:20:54;2.00;;;1.90;;
7675;SDS011;3880;51.464;-2.566;2022-07-06T02:23:22;2.60;;;2.20;;
7675;SDS011;3880;51.464;-2.566;2022-07-06T02:25:51;2.50;;;2.30;;
7675;SDS011;3880;51.464;-2.566;2022-07-06T02:28:18;2.30;;;2.20;;
7675;SDS011;3880;51.464;-2.566;2022-07-06T02:30:47;3.37;;;2.33;;
7675;SDS011;3880;51.464;-2.566;2022-07-06T02:33:14;6.10;;;2.77;;
7675;SDS011;3880;51.464;-2.566;2022-07-06T02:35:41;2.47;;;2.27;;
7675;SDS011;3880;51.464;-2.566;2022-07-06T02:38:08;2.67;;;2.27;;
7675;SDS011;3880;51.464;-2.566;2022-07-06T02:40:36;2.30;;;2.10;;
7675;SDS011;3880;51.464;-2.566;2022-07-06T02:43:03;3.37;;;2.43;;
7675;SDS011;3880;51.464;-2.566;2022-07-06T02:45:30;4.00;;;2.50;;
7675;SDS011;3880;51.464;-2.566;2022-07-06T02:47:59;6.17;;;3.63;;
7675;SDS011;3880;51.464;-2.566;2022-07-06T02:50:26;3.00;;;2.77;;
7675;SDS011;3880;51.464;-2.566;2022-07-06T02:52:53;2.53;;;2.33;;
7675;SDS011;3880;51.464;-2.566;2022-07-06T02:55:21;2.47;;;2.20;;
7675;SDS011;3880;51.464;-2.566;2022-07-06T02:57:48;2.80;;;2.37;;
7675;SDS011;3880;51.464;-2.566;2022-07-06T03:00:16;3.40;;;2.20;;
7675;SDS011;3880;51.464;-2.566;2022-07-06T03:02:43;2.30;;;2.10;;
7675;SDS011;3880;51.464;-2.566;2022-07-06T03:05:12;2.80;;;2.60;;
7675;SDS011;3880;51.464;-2.566;2022-07-06T03:07:39;2.57;;;2.20;;
7675;SDS011;3880;51.464;-2.566;2022-07-06T03:10:06;3.93;;;2.10;;
7675;SDS011;3880;51.464;-2.566;2022-07-06T03:12:34;3.73;;;2.20;;
7675;SDS011;3880;51.464;-2.566;2022-07-06T03:15:01;6.00;;;2.83;;
7675;SDS011;3880;51.464;-2.566;2022-07-06T03:17:28;3.33;;;2.70;;
7675;SDS011;3880;51.464;-2.566;2022-07-06T03:19:55;3.73;;;2.53;;
7675;SDS011;3880;51.464;-2.566;2022-07-06T03:22:24;2.97;;;2.43;;
7675;SDS011;3880;51.464;-2.566;2022-07-06T03:24:51;2.40;;;2.20;;
7675;SDS011;3880;51.464;-2.566;2022-07-06T03:27:18;2.57;;;2.37;;
7675;SDS011;3880;51.464;-2.566;2022-07-06T03:29:46;3.87;;;2.30;;
7675;SDS011;3880;51.464;-2.566;2022-07-06T03:32:13;2.30;;;2.10;;
7675;SDS011;3880;51.464;-2.566;2022-07-06T03:34:40;2.37;;;2.17;;
7675;SDS011;3880;51.464;-2.566;2022-07-06T03:37:07;3.43;;;2.60;;
7675;SDS011;3880;51.464;-2.566;2022-07-06T03:39:35;4.07;;;2.40;;
7675;SDS011;3880;51.464;-2.566;2022-07-06T03:42:03;3.07;;;2.77;;
7675;SDS011;3880;51.464;-2.566;2022-07-06T03:44:30;5.27;;;2.67;;
7675;SDS011;3880;51.464;-2.566;2022-07-06T03:46:57;2.93;;;2.73;;
7675;SDS011;3880;51.464;-2.566;2022-07-06T03:49:24;2.90;;;2.40;;
7675;SDS011;3880;51.464;-2.566;2022-07-06T03:51:54;3.10;;;2.30;;
7675;SDS011;3880;51.464;-2.566;2022-07-06T03:54:21;2.70;;;2.40;;
7675;SDS011;3880;51.464;-2.566;2022-07-06T03:56:50;2.13;;;2.00;;
7675;SDS011;3880;51.464;-2.566;2022-07-06T03:59:17;2.90;;;1.97;;
7675;SDS011;3880;51.464;-2.566;2022-07-06T04:01:44;2.20;;;2.10;;
7675;SDS011;3880;51.464;-2.566;2022-07-06T04:04:11;2.47;;;2.07;;
7675;SDS011;3880;51.464;-2.566;2022-07-06T04:06:38;2.40;;;2.20;;
7675;SDS011;3880;51.464;-2.566;2022-07-06T04:09:06;2.17;;;1.97;;
7675;SDS011;3880;51.464;-2.566;2022-07-06T04:11:33;2.13;;;1.90;;
7675;SDS011;3880;51.464;-2.566;2022-07-06T04:14:01;2.60;;;2.33;;
7675;SDS011;3880;51.464;-2.566;2022-07-06T04:16:29;2.30;;;2.10;;
7675;SDS011;3880;51.464;-2.566;2022-07-06T04:18:56;2.93;;;2.53;;
7675;SDS011;3880;51.464;-2.566;2022-07-06T04:21:23;3.40;;;2.60;;
7675;SDS011;3880;51.464;-2.566;2022-07-06T04:23:53;3.90;;;2.73;;
7675;SDS011;3880;51.464;-2.566;2022-07-06T04:26:20;3.13;;;2.60;;
7675;SDS011;3880;51.464;-2.566;2022-07-06T04:28:47;2.70;;;2.50;;
7675;SDS011;3880;51.464;-2.566;2022-07-06T04:31:16;3.20;;;2.90;;
7675;SDS011;3880;51.464;-2.566;2022-07-06T04:33:43;2.73;;;2.53;;
7675;SDS011;3880;51.464;-2.566;2022-07-06T04:36:10;2.40;;;2.27;;
7675;SDS011;3880;51.464;-2.566;2022-07-06T04:38:37;2.90;;;2.70;;
7675;SDS011;3880;51.464;-2.566;2022-07-06T04:41:05;8.20;;;2.70;;
7675;SDS011;3880;51.464;-2.566;2022-07-06T04:43:32;4.43;;;2.97;;
7675;SDS011;3880;51.464;-2.566;2022-07-06T04:45:59;3.67;;;2.80;;
7675;SDS011;3880;51.464;-2.566;2022-07-06T04:48:28;2.47;;;2.13;;
7675;SDS011;3880;51.464;-2.566;2022-07-06T04:50:57;2.90;;;2.57;;
7675;SDS011;3880;51.464;-2.566;2022-07-06T04:53:26;3.53;;;2.40;;
7675;SDS011;3880;51.464;-2.566;2022-07-06T04:55:53;3.50;;;3.17;;
7675;SDS011;3880;51.464;-2.566;2022-07-06T04:58:21;3.43;;;3.13;;
7675;SDS011;3880;51.464;-2.566;2022-07-06T05:00:48;2.83;;;2.50;;
7675;SDS011;3880;51.464;-2.566;2022-07-06T05:03:15;3.07;;;2.73;;
7675;SDS011;3880;51.464;-2.566;2022-07-06T05:05:43;5.00;;;2.80;;
7675;SDS011;3880;51.464;-2.566;2022-07-06T05:08:11;2.50;;;2.30;;
7675;SDS011;3880;51.464;-2.566;2022-07-06T05:10:38;3.07;;;2.47;;
7675;SDS011;3880;51.464;-2.566;2022-07-06T05:13:05;4.87;;;3.17;;
7675;SDS011;3880;51.464;-2.566;2022-07-06T05:15:32;2.83;;;2.63;;
7675;SDS011;3880;51.464;-2.566;2022-07-06T05:17:59;3.20;;;2.90;;
7675;SDS011;3880;51.464;-2.566;2022-07-06T05:20:27;3.07;;;2.43;;
7675;SDS011;3880;51.464;-2.566;2022-07-06T05:22:56;5.33;;;2.73;;
7675;SDS011;3880;51.464;-2.566;2022-07-06T05:25:24;3.60;;;2.87;;
7675;SDS011;3880;51.464;-2.566;2022-07-06T05:27:51;2.83;;;2.63;;
7675;SDS011;3880;51.464;-2.566;2022-07-06T05:30:18;3.93;;;2.67;;
7675;SDS011;3880;51.464;-2.566;2022-07-06T05:32:45;3.73;;;3.10;;
7675;SDS011;3880;51.464;-2.566;2022-07-06T05:35:12;2.90;;;2.60;;
7675;SDS011;3880;51.464;-2.566;2022-07-06T05:37:41;2.53;;;2.33;;
7675;SDS011;3880;51.464;-2.566;2022-07-06T05:40:11;2.20;;;2.10;;
7675;SDS011;3880;51.464;-2.566;2022-07-06T05:42:38;3.73;;;2.37;;
7675;SDS011;3880;51.464;-2.566;2022-07-06T05:45:05;3.47;;;2.80;;
7675;SDS011;3880;51.464;-2.566;2022-07-06T05:47:33;3.10;;;2.47;;
7675;SDS011;3880;51.464;-2.566;2022-07-06T05:50:19;3.07;;;2.77;;
7675;SDS011;3880;51.464;-2.566;2022-07-06T05:52:55;3.07;;;2.40;;
7675;SDS011;3880;51.464;-2.566;2022-07-06T05:55:27;4.20;;;2.83;;
7675;SDS011;3880;51.464;-2.566;2022-07-06T05:57:54;2.60;;;2.40;;
7675;SDS011;3880;51.464;-2.566;2022-07-06T06:00:23;4.03;;;3.00;;
7675;SDS011;3880;51.464;-2.566;2022-07-06T06:02:51;3.93;;;2.73;;
7675;SDS011;3880;51.464;-2.566;2022-07-06T06:05:19;9.67;;;2.93;;
7675;SDS011;3880;51.464;-2.566;2022-07-06T06:07:47;2.60;;;2.40;;
7675;SDS011;3880;51.464;-2.566;2022-07-06T06:10:16;3.17;;;2.80;;
7675;SDS011;3880;51.464;-2.566;2022-07-06T06:12:45;7.57;;;3.23;;
7675;SDS011;3880;51.464;-2.566;2022-07-06T06:15:13;6.67;;;3.90;;
7675;SDS011;3880;51.464;-2.566;2022-07-06T06:17:40;3.77;;;3.27;;
7675;SDS011;3880;51.464;-2.566;2022-07-06T06:20:08;3.30;;;3.03;;
7675;SDS011;3880;51.464;-2.566;2022-07-06T06:22:44;3.43;;;2.80;;
7675;SDS011;3880;51.464;-2.566;2022-07-06T06:25:12;9.43;;;4.20;;
7675;SDS011;3880;51.464;-2.566;2022-07-06T06:27:39;3.70;;;3.10;;
7675;SDS011;3880;51.464;-2.566;2022-07-06T06:30:08;6.90;;;3.83;;
7675;SDS011;3880;51.464;-2.566;2022-07-06T06:32:37;6.03;;;3.57;;
7675;SDS011;3880;51.464;-2.566;2022-07-06T06:35:04;3.30;;;2.30;;
7675;SDS011;3880;51.464;-2.566;2022-07-06T06:37:32;6.57;;;3.13;;
7675;SDS011;3880;51.464;-2.566;2022-07-06T06:40:00;3.77;;;2.73;;
7675;SDS011;3880;51.464;-2.566;2022-07-06T06:42:27;4.23;;;2.97;;
7675;SDS011;3880;51.464;-2.566;2022-07-06T06:44:54;3.57;;;3.03;;
7675;SDS011;3880;51.464;-2.566;2022-07-06T06:47:23;2.50;;;2.30;;
7675;SDS011;3880;51.464;-2.566;2022-07-06T06:49:50;3.23;;;2.47;;
7675;SDS011;3880;51.464;-2.566;2022-07-06T06:52:17;2.40;;;2.20;;
7675;SDS011;3880;51.464;-2.566;2022-07-06T06:54:44;4.10;;;2.63;;
7675;SDS011;3880;51.464;-2.566;2022-07-06T06:57:11;3.00;;;2.77;;
7675;SDS011;3880;51.464;-2.566;2022-07-06T06:59:38;4.00;;;2.30;;
7675;SDS011;3880;51.464;-2.566;2022-07-06T07:02:05;4.10;;;2.80;;
7675;SDS011;3880;51.464;-2.566;2022-07-06T07:04:34;4.50;;;2.60;;
7675;SDS011;3880;51.464;-2.566;2022-07-06T07:07:01;2.80;;;2.53;;
7675;SDS011;3880;51.464;-2.566;2022-07-06T07:09:28;2.83;;;2.53;;
7675;SDS011;3880;51.464;-2.566;2022-07-06T07:11:55;3.13;;;2.30;;
7675;SDS011;3880;51.464;-2.566;2022-07-06T07:14:23;3.37;;;2.20;;
7675;SDS011;3880;51.464;-2.566;2022-07-06T07:16:50;2.93;;;2.60;;
7675;SDS011;3880;51.464;-2.566;2022-07-06T07:19:17;3.20;;;2.90;;
7675;SDS011;3880;51.464;-2.566;2022-07-06T07:21:45;4.47;;;2.27;;
7675;SDS011;3880;51.464;-2.566;2022-07-06T07:24:12;2.30;;;2.10;;
7675;SDS011;3880;51.464;-2.566;2022-07-06T07:26:39;2.80;;;2.13;;
7675;SDS011;3880;51.464;-2.566;2022-07-06T07:29:10;2.23;;;2.10;;
7675;SDS011;3880;51.464;-2.566;2022-07-06T07:31:37;2.80;;;2.53;;
7675;SDS011;3880;51.464;-2.566;2022-07-06T07:34:04;2.17;;;2.07;;
7675;SDS011;3880;51.464;-2.566;2022-07-06T07:36:32;2.30;;;2.10;;
7675;SDS011;3880;51.464;-2.566;2022-07-06T07:39:00;4.07;;;2.40;;
7675;SDS011;3880;51.464;-2.566;2022-07-06T07:41:27;5.83;;;2.70;;
7675;SDS011;3880;51.464;-2.566;2022-07-06T07:43:55;2.03;;;1.87;;
7675;SDS011;3880;51.464;-2.566;2022-07-06T07:46:22;2.33;;;2.00;;
7675;SDS011;3880;51.464;-2.566;2022-07-06T07:48:49;3.53;;;1.90;;
7675;SDS011;3880;51.464;-2.566;2022-07-06T07:51:16;4.93;;;2.33;;
7675;SDS011;3880;51.464;-2.566;2022-07-06T07:53:43;1.57;;;1.47;;
7675;SDS011;3880;51.464;-2.566;2022-07-06T07:56:12;2.47;;;2.10;;
7675;SDS011;3880;51.464;-2.566;2022-07-06T07:58:39;1.80;;;1.70;;
7675;SDS011;3880;51.464;-2.566;2022-07-06T08:01:06;1.73;;;1.60;;
7675;SDS011;3880;51.464;-2.566;2022-07-06T08:03:33;2.10;;;1.97;;
7675;SDS011;3880;51.464;-2.566;2022-07-06T08:06:01;1.70;;;1.60;;
7675;SDS011;3880;51.464;-2.566;2022-07-06T08:08:28;2.10;;;2.00;;
7675;SDS011;3880;51.464;-2.566;2022-07-06T08:10:55;1.70;;;1.60;;
7675;SDS011;3880;51.464;-2.566;2022-07-06T08:13:24;3.87;;;1.80;;
7675;SDS011;3880;51.464;-2.566;2022-07-06T08:15:51;2.63;;;2.33;;
7675;SDS011;3880;51.464;-2.566;2022-07-06T08:18:18;3.43;;;1.60;;
7675;SDS011;3880;51.464;-2.566;2022-07-06T08:20:45;1.60;;;1.50;;
7675;SDS011;3880;51.464;-2.566;2022-07-06T08:23:12;2.70;;;1.70;;
7675;SDS011;3880;51.464;-2.566;2022-07-06T08:25:39;3.08;;;2.03;;
7675;SDS011;3880;51.464;-2.566;2022-07-06T08:28:07;6.75;;;2.35;;
7675;SDS011;3880;51.464;-2.566;2022-07-06T08:30:35;30.05;;;2.97;;
7675;SDS011;3880;51.464;-2.566;2022-07-06T08:33:02;2.00;;;1.60;;
7675;SDS011;3880;51.464;-2.566;2022-07-06T08:35:30;1.83;;;1.55;;
7675;SDS011;3880;51.464;-2.566;2022-07-06T08:37:57;5.13;;;1.92;;
7675;SDS011;3880;51.464;-2.566;2022-07-06T08:40:30;1.85;;;1.75;;
7675;SDS011;3880;51.464;-2.566;2022-07-06T08:43:00;1.63;;;1.50;;
7675;SDS011;3880;51.464;-2.566;2022-07-06T08:45:29;1.67;;;1.58;;
7675;SDS011;3880;51.464;-2.566;2022-07-06T08:48:03;1.45;;;1.35;;
7675;SDS011;3880;51.464;-2.566;2022-07-06T08:50:32;2.42;;;1.30;;
7675;SDS011;3880;51.464;-2.566;2022-07-06T08:53:00;1.33;;;1.33;;
7675;SDS011;3880;51.464;-2.566;2022-07-06T08:55:27;7.20;;;1.42;;
7675;SDS011;3880;51.464;-2.566;2022-07-06T08:57:59;2.50;;;1.48;;
7675;SDS011;3880;51.464;-2.566;2022-07-06T09:00:26;2.40;;;1.80;;
7675;SDS011;3880;51.464;-2.566;2022-07-06T09:02:54;3.50;;;1.38;;
7675;SDS011;3880;51.464;-2.566;2022-07-06T09:05:23;2.28;;;1.10;;
7675;SDS011;3880;51.464;-2.566;2022-07-06T09:07:51;2.50;;;1.60;;
7675;SDS011;3880;51.464;-2.566;2022-07-06T09:10:19;1.70;;;1.60;;
7675;SDS011;3880;51.464;-2.566;2022-07-06T09:12:48;1.33;;;1.23;;
7675;SDS011;3880;51.464;-2.566;2022-07-06T09:15:15;1.77;;;1.50;;
7675;SDS011;3880;51.464;-2.566;2022-07-06T09:17:43;1.52;;;1.42;;
7675;SDS011;3880;51.464;-2.566;2022-07-06T09:20:25;1.50;;;1.48;;
7675;SDS011;3880;51.464;-2.566;2022-07-06T09:22:56;3.40;;;1.33;;
7675;SDS011;3880;51.464;-2.566;2022-07-06T09:25:27;2.25;;;1.42;;
7675;SDS011;3880;51.464;-2.566;2022-07-06T09:27:56;1.50;;;1.38;;
7675;SDS011;3880;51.464;-2.566;2022-07-06T09:30:24;2.15;;;1.35;;
7675;SDS011;3880;51.464;-2.566;2022-07-06T09:32:53;1.30;;;1.10;;
7675;SDS011;3880;51.464;-2.566;2022-07-06T09:35:22;1.30;;;1.20;;
7675;SDS011;3880;51.464;-2.566;2022-07-06T09:38:01;1.88;;;1.27;;
7675;SDS011;3880;51.464;-2.566;2022-07-06T09:40:30;1.90;;;1.40;;
7675;SDS011;3880;51.464;-2.566;2022-07-06T09:43:09;3.50;;;1.65;;
7675;SDS011;3880;51.464;-2.566;2022-07-06T09:45:38;4.97;;;1.55;;
7675;SDS011;3880;51.464;-2.566;2022-07-06T09:48:07;2.33;;;1.88;;
7675;SDS011;3880;51.464;-2.566;2022-07-06T09:50:39;2.10;;;1.10;;
7675;SDS011;3880;51.464;-2.566;2022-07-06T09:53:13;3.78;;;1.70;;
7675;SDS011;3880;51.464;-2.566;2022-07-06T09:55:44;3.05;;;1.60;;
7675;SDS011;3880;51.464;-2.566;2022-07-06T09:58:12;9.20;;;1.85;;
7675;SDS011;3880;51.464;-2.566;2022-07-06T10:00:39;3.78;;;2.22;;
7675;SDS011;3880;51.464;-2.566;2022-07-06T10:03:08;2.17;;;1.90;;
7675;SDS011;3880;51.464;-2.566;2022-07-06T10:05:36;10.57;;;1.90;;
7675;SDS011;3880;51.464;-2.566;2022-07-06T10:08:04;1.80;;;1.40;;
7675;SDS011;3880;51.464;-2.566;2022-07-06T10:10:36;2.22;;;1.52;;
7675;SDS011;3880;51.464;-2.566;2022-07-06T10:13:04;1.35;;;1.25;;
7675;SDS011;3880;51.464;-2.566;2022-07-06T10:15:33;2.45;;;1.02;;
7675;SDS011;3880;51.464;-2.566;2022-07-06T10:18:02;3.08;;;1.52;;
7675;SDS011;3880;51.464;-2.566;2022-07-06T10:20:31;2.53;;;0.98;;
7675;SDS011;3880;51.464;-2.566;2022-07-06T10:23:02;3.30;;;1.30;;
7675;SDS011;3880;51.464;-2.566;2022-07-06T10:25:31;1.38;;;1.27;;
7675;SDS011;3880;51.464;-2.566;2022-07-06T10:28:00;1.33;;;1.30;;
7675;SDS011;3880;51.464;-2.566;2022-07-06T10:30:36;5.95;;;1.38;;
7675;SDS011;3880;51.464;-2.566;2022-07-06T10:33:04;1.30;;;1.20;;
7675;SDS011;3880;51.464;-2.566;2022-07-06T10:35:31;4.65;;;1.25;;
7675;SDS011;3880;51.464;-2.566;2022-07-06T10:38:03;2.63;;;1.25;;
7675;SDS011;3880;51.464;-2.566;2022-07-06T10:40:34;1.17;;;1.10;;
7675;SDS011;3880;51.464;-2.566;2022-07-06T10:43:20;1.95;;;1.35;;
7675;SDS011;3880;51.464;-2.566;2022-07-06T10:45:51;2.03;;;1.20;;
7675;SDS011;3880;51.464;-2.566;2022-07-06T10:48:19;1.83;;;1.30;;
7675;SDS011;3880;51.464;-2.566;2022-07-06T10:50:48;3.00;;;1.60;;
7675;SDS011;3880;51.464;-2.566;2022-07-06T10:53:17;3.72;;;1.27;;
7675;SDS011;3880;51.464;-2.566;2022-07-06T10:55:49;2.58;;;1.55;;
7675;SDS011;3880;51.464;-2.566;2022-07-06T10:58:38;1.20;;;1.20;;
7675;SDS011;3880;51.464;-2.566;2022-07-06T11:01:07;1.55;;;1.45;;
7675;SDS011;3880;51.464;-2.566;2022-07-06T11:03:36;5.25;;;1.60;;
7675;SDS011;3880;51.464;-2.566;2022-07-06T11:06:08;1.63;;;1.52;;
7675;SDS011;3880;51.464;-2.566;2022-07-06T11:11:25;4.53;;;1.27;;
7675;SDS011;3880;51.464;-2.566;2022-07-06T11:14:05;4.72;;;2.05;;
7675;SDS011;3880;51.464;-2.566;2022-07-06T11:16:33;1.42;;;1.30;;
7675;SDS011;3880;51.464;-2.566;2022-07-06T11:19:05;5.32;;;1.73;;
7675;SDS011;3880;51.464;-2.566;2022-07-06T11:21:43;1.90;;;1.10;;
7675;SDS011;3880;51.464;-2.566;2022-07-06T11:24:13;1.50;;;1.27;;
7675;SDS011;3880;51.464;-2.566;2022-07-06T11:26:42;4.38;;;1.60;;
7675;SDS011;3880;51.464;-2.566;2022-07-06T11:29:13;3.20;;;1.33;;
7675;SDS011;3880;51.464;-2.566;2022-07-06T11:31:42;2.45;;;1.30;;
7675;SDS011;3880;51.464;-2.566;2022-07-06T11:34:11;6.18;;;1.33;;
7675;SDS011;3880;51.464;-2.566;2022-07-06T11:36:39;1.20;;;1.15;;
7675;SDS011;3880;51.464;-2.566;2022-07-06T11:39:07;1.40;;;1.30;;
7675;SDS011;3880;51.464;-2.566;2022-07-06T11:41:34;3.20;;;1.35;;
7675;SDS011;3880;51.464;-2.566;2022-07-06T11:44:02;4.05;;;1.20;;
7675;SDS011;3880;51.464;-2.566;2022-07-06T11:46:32;5.32;;;1.80;;
7675;SDS011;3880;51.464;-2.566;2022-07-06T11:49:01;4.78;;;1.17;;
7675;SDS011;3880;51.464;-2.566;2022-07-06T11:51:30;2.40;;;1.20;;
7675;SDS011;3880;51.464;-2.566;2022-07-06T11:53:58;1.60;;;1.50;;
7675;SDS011;3880;51.464;-2.566;2022-07-06T11:56:27;16.33;;;1.90;;
7675;SDS011;3880;51.464;-2.566;2022-07-06T11:58:56;1.10;;;1.10;;
7675;SDS011;3880;51.464;-2.566;2022-07-06T12:01:25;1.25;;;1.10;;
7675;SDS011;3880;51.464;-2.566;2022-07-06T12:03:56;0.93;;;0.90;;
7675;SDS011;3880;51.464;-2.566;2022-07-06T12:06:25;1.13;;;1.02;;
7675;SDS011;3880;51.464;-2.566;2022-07-06T12:08:53;8.52;;;1.83;;
7675;SDS011;3880;51.464;-2.566;2022-07-06T12:11:22;3.70;;;1.23;;
7675;SDS011;3880;51.464;-2.566;2022-07-06T12:13:50;2.95;;;1.27;;
7675;SDS011;3880;51.464;-2.566;2022-07-06T12:16:18;2.22;;;1.40;;
7675;SDS011;3880;51.464;-2.566;2022-07-06T12:18:49;1.15;;;0.95;;
7675;SDS011;3880;51.464;-2.566;2022-07-06T12:21:18;1.38;;;1.20;;
7675;SDS011;3880;51.464;-2.566;2022-07-06T12:23:48;3.58;;;1.67;;
7675;SDS011;3880;51.464;-2.566;2022-07-06T12:26:17;4.38;;;1.27;;
7675;SDS011;3880;51.464;-2.566;2022-07-06T12:28:45;0.95;;;0.95;;
7675;SDS011;3880;51.464;-2.566;2022-07-06T12:33:58;1.63;;;1.48;;
7675;SDS011;3880;51.464;-2.566;2022-07-06T12:36:29;4.00;;;1.70;;
7675;SDS011;3880;51.464;-2.566;2022-07-06T12:38:56;2.40;;;1.40;;
7675;SDS011;3880;51.464;-2.566;2022-07-06T12:41:24;3.22;;;1.30;;
7675;SDS011;3880;51.464;-2.566;2022-07-06T12:44:00;3.58;;;1.20;;
7675;SDS011;3880;51.464;-2.566;2022-07-06T12:46:32;4.30;;;1.70;;
7675;SDS011;3880;51.464;-2.566;2022-07-06T12:49:02;4.15;;;2.10;;
7675;SDS011;3880;51.464;-2.566;2022-07-06T12:51:52;3.00;;;1.65;;
7675;SDS011;3880;51.464;-2.566;2022-07-06T12:54:20;2.90;;;1.55;;
7675;SDS011;3880;51.464;-2.566;2022-07-06T12:57:03;2.85;;;1.60;;
7675;SDS011;3880;51.464;-2.566;2022-07-06T12:59:38;2.25;;;1.42;;
7675;SDS011;3880;51.464;-2.566;2022-07-06T13:02:07;2.63;;;1.48;;
7675;SDS011;3880;51.464;-2.566;2022-07-06T13:04:36;7.35;;;1.80;;
7675;SDS011;3880;51.464;-2.566;2022-07-06T13:07:05;1.92;;;1.17;;
7675;SDS011;3880;51.464;-2.566;2022-07-06T13:09:32;2.67;;;1.40;;
7675;SDS011;3880;51.464;-2.566;2022-07-06T13:12:00;5.45;;;1.42;;
7675;SDS011;3880;51.464;-2.566;2022-07-06T13:14:28;1.38;;;1.27;;
7675;SDS011;3880;51.464;-2.566;2022-07-06T13:16:55;3.67;;;2.08;;
7675;SDS011;3880;51.464;-2.566;2022-07-06T13:19:22;2.78;;;1.60;;
7675;SDS011;3880;51.464;-2.566;2022-07-06T13:21:49;3.97;;;2.53;;
7675;SDS011;3880;51.464;-2.566;2022-07-06T13:24:17;5.80;;;1.80;;
7675;SDS011;3880;51.464;-2.566;2022-07-06T13:26:44;4.75;;;1.75;;
7675;SDS011;3880;51.464;-2.566;2022-07-06T13:29:11;4.70;;;1.95;;
7675;SDS011;3880;51.464;-2.566;2022-07-06T13:31:39;3.45;;;1.73;;
7675;SDS011;3880;51.464;-2.566;2022-07-06T13:34:07;2.25;;;2.05;;
7675;SDS011;3880;51.464;-2.566;2022-07-06T13:36:34;6.40;;;1.73;;
7675;SDS011;3880;51.464;-2.566;2022-07-06T13:39:02;3.95;;;1.73;;
7675;SDS011;3880;51.464;-2.566;2022-07-06T13:41:31;2.95;;;1.60;;
7675;SDS011;3880;51.464;-2.566;2022-07-06T13:43:58;1.80;;;1.40;;
7675;SDS011;3880;51.464;-2.566;2022-07-06T13:46:26;5.03;;;1.77;;
7675;SDS011;3880;51.464;-2.566;2022-07-06T13:48:53;3.10;;;1.33;;
7675;SDS011;3880;51.464;-2.566;2022-07-06T13:51:21;11.73;;;1.45;;
7675;SDS011;3880;51.464;-2.566;2022-07-06T13:53:49;5.60;;;2.00;;
7675;SDS011;3880;51.464;-2.566;2022-07-06T13:56:17;4.90;;;1.60;;
7675;SDS011;3880;51.464;-2.566;2022-07-06T13:58:45;5.50;;;1.77;;
7675;SDS011;3880;51.464;-2.566;2022-07-06T14:01:12;3.35;;;1.70;;
7675;SDS011;3880;51.464;-2.566;2022-07-06T14:03:40;4.05;;;1.65;;
7675;SDS011;3880;51.464;-2.566;2022-07-06T14:06:07;2.50;;;1.77;;
7675;SDS011;3880;51.464;-2.566;2022-07-06T14:08:35;4.10;;;1.48;;
7675;SDS011;3880;51.464;-2.566;2022-07-06T14:11:03;1.85;;;1.30;;
7675;SDS011;3880;51.464;-2.566;2022-07-06T14:13:31;2.72;;;1.80;;
7675;SDS011;3880;51.464;-2.566;2022-07-06T14:16:00;4.30;;;1.45;;
7675;SDS011;3880;51.464;-2.566;2022-07-06T14:18:27;2.55;;;2.03;;
7675;SDS011;3880;51.464;-2.566;2022-07-06T14:20:55;4.65;;;1.52;;
7675;SDS011;3880;51.464;-2.566;2022-07-06T14:23:22;3.55;;;1.70;;
7675;SDS011;3880;51.464;-2.566;2022-07-06T14:25:50;5.72;;;1.80;;
7675;SDS011;3880;51.464;-2.566;2022-07-06T14:28:19;5.10;;;1.85;;
7675;SDS011;3880;51.464;-2.566;2022-07-06T14:30:47;6.57;;;2.50;;
7675;SDS011;3880;51.464;-2.566;2022-07-06T14:33:15;4.10;;;2.10;;
7675;SDS011;3880;51.464;-2.566;2022-07-06T14:35:44;4.18;;;2.05;;
7675;SDS011;3880;51.464;-2.566;2022-07-06T14:38:13;4.53;;;2.00;;
7675;SDS011;3880;51.464;-2.566;2022-07-06T14:40:41;3.67;;;1.70;;
7675;SDS011;3880;51.464;-2.566;2022-07-06T14:43:08;6.57;;;2.13;;
7675;SDS011;3880;51.464;-2.566;2022-07-06T14:45:36;5.13;;;1.90;;
7675;SDS011;3880;51.464;-2.566;2022-07-06T14:48:03;3.63;;;1.40;;
7675;SDS011;3880;51.464;-2.566;2022-07-06T14:50:33;13.70;;;2.20;;
7675;SDS011;3880;51.464;-2.566;2022-07-06T14:53:01;2.33;;;1.80;;
7675;SDS011;3880;51.464;-2.566;2022-07-06T14:55:28;2.10;;;1.52;;
7675;SDS011;3880;51.464;-2.566;2022-07-06T14:57:57;5.60;;;1.77;;
7675;SDS011;3880;51.464;-2.566;2022-07-06T15:00:24;5.00;;;1.70;;
7675;SDS011;3880;51.464;-2.566;2022-07-06T15:02:51;2.90;;;1.48;;
7675;SDS011;3880;51.464;-2.566;2022-07-06T15:05:18;3.03;;;2.25;;
7675;SDS011;3880;51.464;-2.566;2022-07-06T15:07:47;3.75;;;1.90;;
7675;SDS011;3880;51.464;-2.566;2022-07-06T15:10:14;3.85;;;1.95;;
7675;SDS011;3880;51.464;-2.566;2022-07-06T15:12:41;6.70;;;2.15;;